Time;durP1;ratioP1;P1;durP2;ratioP2;P2;SDS_P1;SDS_P2;PMS_P1;PMS_P2;Temp;Humidity;BMP_temperature;BMP_pressure;BME280_temperature;BME280_humidity;BME280_pressure;Samples;Min_cycle;Max_cycle;Signal;HPM_P1;HPM_P2
2023/08/23 00:01:06;;;;;;;13.50;10.65;;;;;;;;;;10277401;28;20035;-86
2023/08/23 00:06:07;;;;;;;14.82;10.30;;;;;;;;;;10342231;28;20041;-85
2023/08/23 00:11:08;;;;;;;15.85;11.63;;;;;;;;;;10274601;28;20034;-87
2023/08/23 00:16:09;;;;;;;15.13;10.10;;;;;;;;;;10295781;28;20071;-87
2023/08/23 00:21:10;;;;;;;15.40;11.45;;;;;;;;;;10464084;28;20380;-85
2023/08/23 00:26:11;;;;;;;17.98;11.50;;;;;;;;;;10479975;28;20067;-85
2023/08/23 00:31:12;;;;;;;18.52;11.75;;;;;;;;;;10450817;28;20035;-85
2023/08/23 00:36:13;;;;;;;13.88;11.00;;;;;;;;;;10449461;28;20028;-88
2023/08/23 00:41:14;;;;;;;18.15;12.02;;;;;;;;;;10465364;28;20089;-85
2023/08/23 00:46:15;;;;;;;15.75;12.05;;;;;;;;;;10458295;28;20097;-85
2023/08/23 00:51:17;;;;;;;18.02;13.02;;;;;;;;;;10480386;28;20454;-85
2023/08/23 00:56:18;;;;;;;18.77;12.23;;;;;;;;;;10466894;28;20039;-87
2023/08/23 01:01:20;;;;;;;19.35;13.27;;;;;;;;;;10465292;28;20182;-85
2023/08/23 01:06:39;;;;;;;19.42;13.85;;;;;;;;;;10462538;28;20207;-88
2023/08/23 01:11:55;;;;;;;20.58;15.60;;;;;;;;;;10481246;28;20376;-85
2023/08/23 01:16:57;;;;;;;23.55;16.35;;;;;;;;;;10460099;28;20056;-86
2023/08/23 01:21:58;;;;;;;21.70;14.55;;;;;;;;;;10464455;28;20109;-86
2023/08/23 01:26:59;;;;;;;22.00;15.57;;;;;;;;;;10465196;28;20510;-88
2023/08/23 01:32:26;;;;;;;21.02;14.60;;;;;;;;;;10455220;28;20032;-89
2023/08/23 01:37:27;;;;;;;17.73;14.48;;;;;;;;;;10429581;28;20106;-85
2023/08/23 01:42:29;;;;;;;20.67;15.63;;;;;;;;;;10469275;28;20558;-84
2023/08/23 01:47:30;;;;;;;19.40;14.23;;;;;;;;;;10491344;28;20044;-85
2023/08/23 01:52:31;;;;;;;21.65;14.43;;;;;;;;;;10460048;28;20028;-85
2023/08/23 01:57:32;;;;;;;20.23;13.98;;;;;;;;;;10460979;28;20059;-85
2023/08/23 02:02:33;;;;;;;21.00;14.20;;;;;;;;;;10476972;28;20028;-84
2023/08/23 02:07:34;;;;;;;20.23;14.43;;;;;;;;;;10480475;28;20059;-84
2023/08/23 02:12:35;;;;;;;20.23;15.15;;;;;;;;;;10467088;28;20025;-85
2023/08/23 02:17:36;;;;;;;20.48;14.48;;;;;;;;;;10487020;28;20060;-84
2023/08/23 02:22:37;;;;;;;18.40;14.82;;;;;;;;;;10477688;28;20032;-88
2023/08/23 02:27:38;;;;;;;19.08;14.38;;;;;;;;;;10469636;28;20048;-86
2023/08/23 02:32:39;;;;;;;18.90;14.35;;;;;;;;;;10468088;28;20033;-84
2023/08/23 02:37:40;;;;;;;21.42;15.27;;;;;;;;;;10490550;28;20029;-87
2023/08/23 02:42:41;;;;;;;20.23;14.45;;;;;;;;;;10470250;28;20454;-85
2023/08/23 02:47:42;;;;;;;20.80;15.05;;;;;;;;;;10468672;28;20043;-87
2023/08/23 02:52:43;;;;;;;23.90;17.95;;;;;;;;;;10470779;28;20032;-85
2023/08/23 02:57:44;;;;;;;23.10;16.02;;;;;;;;;;10519756;23;20059;-84
2023/08/23 03:02:45;;;;;;;21.15;17.60;;;;;;;;;;10555187;28;20019;-86
2023/08/23 03:07:46;;;;;;;26.58;18.90;;;;;;;;;;10578398;27;20043;-85
2023/08/23 03:12:47;;;;;;;23.77;18.75;;;;;;;;;;10585648;27;20035;-84
2023/08/23 03:17:48;;;;;;;26.98;20.55;;;;;;;;;;10562529;27;20031;-85
2023/08/23 03:22:49;;;;;;;31.27;22.90;;;;;;;;;;10605961;27;20036;-83
2023/08/23 03:27:52;;;;;;;33.67;25.48;;;;;;;;;;10583173;27;20188;-84
2023/08/23 03:32:53;;;;;;;33.85;25.40;;;;;;;;;;10608509;27;20031;-85
2023/08/23 03:37:54;;;;;;;36.10;26.45;;;;;;;;;;10603478;27;20088;-86
2023/08/23 03:42:55;;;;;;;35.80;27.25;;;;;;;;;;10609833;27;20075;-85
2023/08/23 03:47:56;;;;;;;37.55;26.73;;;;;;;;;;10607393;27;20482;-84
2023/08/23 03:52:57;;;;;;;34.20;25.30;;;;;;;;;;10592828;27;20043;-83
2023/08/23 03:57:58;;;;;;;32.28;24.38;;;;;;;;;;10580862;27;20052;-84
2023/08/23 04:03:00;;;;;;;32.70;24.60;;;;;;;;;;10579447;27;20031;-85
2023/08/23 04:08:04;;;;;;;27.33;22.13;;;;;;;;;;10594025;27;20035;-83
2023/08/23 04:13:05;;;;;;;27.98;21.65;;;;;;;;;;10569085;28;20032;-85
2023/08/23 04:18:13;;;;;;;31.95;23.48;;;;;;;;;;10580903;27;20020;-82
2023/08/23 04:23:14;;;;;;;29.83;22.00;;;;;;;;;;10573392;27;20100;-87
2023/08/23 04:28:15;;;;;;;28.23;22.02;;;;;;;;;;10582229;27;20084;-86
2023/08/23 04:33:16;;;;;;;26.40;21.05;;;;;;;;;;10389542;22;20061;-85
2023/08/23 04:38:17;;;;;;;25.70;20.50;;;;;;;;;;10313880;28;20082;-84
2023/08/23 04:43:18;;;;;;;25.90;20.05;;;;;;;;;;10307955;28;20060;-85
2023/08/23 04:48:19;;;;;;;31.52;23.50;;;;;;;;;;10317320;28;20043;-84
2023/08/23 04:53:20;;;;;;;28.20;22.27;;;;;;;;;;10318500;28;20073;-84
2023/08/23 04:58:22;;;;;;;26.60;21.98;;;;;;;;;;10313959;28;20034;-84
2023/08/23 05:03:23;;;;;;;27.13;20.55;;;;;;;;;;10313997;28;20034;-88
2023/08/23 05:08:25;;;;;;;25.23;20.10;;;;;;;;;;10302185;28;20037;-85
2023/08/23 05:13:26;;;;;;;27.75;20.45;;;;;;;;;;10298430;28;20033;-86
2023/08/23 05:18:27;;;;;;;29.98;21.92;;;;;;;;;;10310296;28;20026;-86
2023/08/23 05:23:28;;;;;;;33.63;23.20;;;;;;;;;;10313448;28;20038;-88
2023/08/23 05:28:29;;;;;;;33.72;23.42;;;;;;;;;;10309368;28;20067;-88
2023/08/23 05:33:31;;;;;;;29.25;21.35;;;;;;;;;;10313738;28;20489;-85
2023/08/23 05:38:32;;;;;;;26.20;19.08;;;;;;;;;;10306067;28;20049;-88
2023/08/23 05:43:33;;;;;;;25.83;17.40;;;;;;;;;;10295619;28;20033;-85
2023/08/23 05:48:37;;;;;;;31.58;22.00;;;;;;;;;;10315432;28;20252;-86
2023/08/23 05:53:38;;;;;;;27.10;19.75;;;;;;;;;;10314684;28;20459;-90
2023/08/23 05:58:39;;;;;;;27.67;21.05;;;;;;;;;;10297395;28;20092;-85
2023/08/23 06:03:41;;;;;;;30.90;21.30;;;;;;;;;;10284599;28;20444;-86
2023/08/23 06:08:42;;;;;;;29.77;20.60;;;;;;;;;;10309044;28;20053;-86
2023/08/23 06:13:43;;;;;;;25.08;19.40;;;;;;;;;;10304666;28;20491;-87
2023/08/23 06:18:44;;;;;;;30.10;21.88;;;;;;;;;;10316530;28;20030;-87
2023/08/23 06:23:45;;;;;;;30.92;21.80;;;;;;;;;;10320380;28;20041;-86
2023/08/23 06:28:46;;;;;;;29.15;20.75;;;;;;;;;;10304912;28;20594;-86
2023/08/23 06:33:47;;;;;;;28.77;21.60;;;;;;;;;;10313550;28;20066;-85
2023/08/23 06:38:48;;;;;;;27.85;21.42;;;;;;;;;;10319598;28;20034;-86
2023/08/23 06:43:49;;;;;;;29.80;20.20;;;;;;;;;;10301268;28;20159;-86
2023/08/23 06:48:50;;;;;;;31.40;22.15;;;;;;;;;;10304744;28;20049;-85
2023/08/23 06:53:51;;;;;;;29.98;20.27;;;;;;;;;;10306242;23;20062;-86
2023/08/23 06:58:52;;;;;;;24.17;17.70;;;;;;;;;;10277119;28;20030;-87
2023/08/23 07:03:53;;;;;;;20.95;15.50;;;;;;;;;;10279561;28;20027;-86
2023/08/23 07:08:54;;;;;;;20.33;16.30;;;;;;;;;;10270166;28;20047;-86
2023/08/23 07:13:56;;;;;;;22.60;16.83;;;;;;;;;;10269270;28;20099;-83
2023/08/23 07:18:57;;;;;;;20.52;16.17;;;;;;;;;;10282734;28;20034;-84
2023/08/23 07:23:58;;;;;;;20.98;16.20;;;;;;;;;;10296285;28;20555;-85
2023/08/23 07:28:59;;;;;;;17.92;14.73;;;;;;;;;;10289950;28;20042;-86
2023/08/23 07:34:00;;;;;;;17.13;13.48;;;;;;;;;;10280320;28;20042;-87
2023/08/23 07:39:01;;;;;;;18.58;13.07;;;;;;;;;;10272561;28;20035;-88
2023/08/23 07:44:02;;;;;;;21.15;13.48;;;;;;;;;;10277174;28;20803;-87
2023/08/23 07:49:03;;;;;;;13.43;10.70;;;;;;;;;;10280394;28;20053;-87
2023/08/23 07:54:04;;;;;;;19.13;12.15;;;;;;;;;;10474402;28;20031;-90
2023/08/23 07:59:05;;;;;;;16.17;11.60;;;;;;;;;;10490017;28;20482;-87
2023/08/23 08:04:06;;;;;;;142.85;61.45;;;;;;;;;;10474311;28;20024;-86
2023/08/23 08:09:07;;;;;;;28.42;15.25;;;;;;;;;;10482821;28;20041;-87
2023/08/23 08:14:08;;;;;;;13.02;10.50;;;;;;;;;;10466602;28;20059;-88
2023/08/23 08:19:09;;;;;;;14.48;9.75;;;;;;;;;;10457130;28;20473;-88
2023/08/23 08:24:10;;;;;;;12.90;9.27;;;;;;;;;;10493866;28;20028;-88
2023/08/23 08:29:11;;;;;;;15.23;9.65;;;;;;;;;;10479580;28;20551;-88
2023/08/23 08:34:13;;;;;;;9.75;7.85;;;;;;;;;;10476325;28;20507;-87
2023/08/23 08:39:14;;;;;;;10.40;7.40;;;;;;;;;;10475277;28;20036;-88
2023/08/23 08:44:18;;;;;;;10.63;7.07;;;;;;;;;;10459687;28;20055;-88
2023/08/23 08:49:19;;;;;;;10.45;7.20;;;;;;;;;;10471195;28;20066;-88
2023/08/23 08:54:20;;;;;;;10.38;6.30;;;;;;;;;;10481673;28;20028;-86
2023/08/23 08:59:21;;;;;;;13.35;7.05;;;;;;;;;;10473206;28;20590;-87
2023/08/23 09:04:22;;;;;;;8.45;6.00;;;;;;;;;;10458850;28;20158;-88
2023/08/23 09:09:23;;;;;;;9.63;6.88;;;;;;;;;;10462918;28;20407;-89
2023/08/23 09:14:27;;;;;;;11.13;7.28;;;;;;;;;;10464082;28;20028;-88
2023/08/23 09:19:29;;;;;;;9.85;7.25;;;;;;;;;;10443196;28;20801;-89
2023/08/23 09:24:30;;;;;;;9.50;5.72;;;;;;;;;;10452693;28;20025;-88
2023/08/23 09:29:31;;;;;;;10.00;5.70;;;;;;;;;;10471127;28;20450;-87
2023/08/23 09:34:33;;;;;;;8.18;6.03;;;;;;;;;;10475157;28;20093;-89
2023/08/23 09:39:34;;;;;;;7.70;5.82;;;;;;;;;;10463572;28;20040;-87
2023/08/23 09:44:40;;;;;;;8.90;6.18;;;;;;;;;;10466225;28;20032;-88
2023/08/23 09:49:43;;;;;;;9.43;6.40;;;;;;;;;;10465601;28;20056;-88
2023/08/23 09:54:54;;;;;;;9.10;5.93;;;;;;;;;;10463017;28;20036;-89
2023/08/23 09:59:55;;;;;;;6.72;5.35;;;;;;;;;;10463305;28;20507;-88
2023/08/23 10:04:56;;;;;;;9.57;5.57;;;;;;;;;;10462245;28;20090;-89
2023/08/23 10:09:57;;;;;;;7.35;5.57;;;;;;;;;;10469791;28;20048;-88
2023/08/23 10:15:00;;;;;;;8.00;4.85;;;;;;;;;;10471998;28;20071;-89
2023/08/23 10:20:03;;;;;;;7.82;5.57;;;;;;;;;;10466687;28;20044;-88
2023/08/23 10:25:15;;;;;;;8.18;5.43;;;;;;;;;;10473100;28;20074;-88
2023/08/23 10:30:22;;;;;;;9.10;4.93;;;;;;;;;;10466243;28;20048;-88
2023/08/23 10:35:23;;;;;;;6.95;5.32;;;;;;;;;;10466472;28;20078;-88
2023/08/23 10:40:28;;;;;;;6.18;4.68;;;;;;;;;;10467112;28;20044;-87
2023/08/23 10:45:29;;;;;;;7.28;4.82;;;;;;;;;;10468292;28;20033;-86
2023/08/23 10:50:30;;;;;;;6.00;4.80;;;;;;;;;;10489170;28;20056;-88
2023/08/23 10:55:31;;;;;;;6.57;4.45;;;;;;;;;;10484232;28;20722;-89
2023/08/23 11:00:32;;;;;;;7.30;4.63;;;;;;;;;;10469249;28;20463;-87
2023/08/23 11:05:34;;;;;;;6.70;4.38;;;;;;;;;;10473613;28;20473;-88
2023/08/23 11:10:36;;;;;;;8.30;4.90;;;;;;;;;;10443119;28;20079;-86
2023/08/23 11:15:37;;;;;;;8.23;5.47;;;;;;;;;;10479792;28;20043;-87
2023/08/23 11:20:39;;;;;;;9.88;5.40;;;;;;;;;;10457288;28;20044;-88
2023/08/23 11:25:40;;;;;;;7.10;5.15;;;;;;;;;;10456748;28;20481;-87
2023/08/23 11:30:41;;;;;;;7.60;5.03;;;;;;;;;;10465023;28;20048;-88
2023/08/23 11:35:42;;;;;;;9.70;5.63;;;;;;;;;;10465562;28;20071;-88
2023/08/23 11:40:47;;;;;;;8.98;4.90;;;;;;;;;;10472339;28;20536;-88
2023/08/23 11:45:49;;;;;;;7.93;5.50;;;;;;;;;;10467347;28;20025;-88
2023/08/23 11:50:50;;;;;;;8.40;5.25;;;;;;;;;;10464726;28;20064;-87
2023/08/23 11:55:51;;;;;;;8.20;5.15;;;;;;;;;;10457056;28;20025;-88
2023/08/23 12:00:53;;;;;;;9.15;6.15;;;;;;;;;;10490022;28;20034;-87
2023/08/23 12:05:54;;;;;;;7.35;5.55;;;;;;;;;;10489545;28;20081;-86
2023/08/23 12:10:55;;;;;;;6.75;5.03;;;;;;;;;;10457499;28;20063;-88
2023/08/23 12:15:56;;;;;;;6.10;4.82;;;;;;;;;;10503825;22;20170;-90
2023/08/23 12:20:57;;;;;;;7.07;5.68;;;;;;;;;;10519629;28;20032;-87
2023/08/23 12:25:59;;;;;;;9.25;4.95;;;;;;;;;;10527110;28;20156;-91
2023/08/23 12:31:01;;;;;;;5.93;5.13;;;;;;;;;;10512892;28;20056;-91
2023/08/23 12:36:02;;;;;;;6.35;4.85;;;;;;;;;;10509443;28;20035;-89
2023/08/23 12:41:03;;;;;;;5.70;5.05;;;;;;;;;;10512458;28;20035;-88
2023/08/23 12:46:04;;;;;;;8.77;5.45;;;;;;;;;;10515853;28;20115;-86
2023/08/23 12:51:05;;;;;;;6.22;4.70;;;;;;;;;;10512855;28;20040;-85
2023/08/23 12:56:06;;;;;;;8.43;5.28;;;;;;;;;;10538222;28;20035;-86
2023/08/23 13:01:07;;;;;;;5.50;4.35;;;;;;;;;;10508986;28;20185;-85
2023/08/23 13:06:08;;;;;;;6.97;5.13;;;;;;;;;;10508309;28;20036;-87
2023/08/23 13:11:10;;;;;;;5.75;4.80;;;;;;;;;;10498408;28;20050;-89
2023/08/23 13:16:11;;;;;;;7.45;5.10;;;;;;;;;;10516760;28;20051;-88
2023/08/23 13:21:12;;;;;;;4.47;4.00;;;;;;;;;;10506627;28;20031;-86
2023/08/23 13:26:13;;;;;;;5.80;5.20;;;;;;;;;;10522419;28;20028;-88
2023/08/23 13:31:14;;;;;;;7.35;4.85;;;;;;;;;;10492130;28;20039;-86
2023/08/23 13:36:15;;;;;;;6.50;5.20;;;;;;;;;;10508762;28;20028;-87
2023/08/23 13:41:16;;;;;;;7.07;5.40;;;;;;;;;;10510986;28;20501;-84
2023/08/23 13:46:17;;;;;;;5.85;5.03;;;;;;;;;;10535468;28;20024;-86
2023/08/23 13:51:18;;;;;;;6.38;5.45;;;;;;;;;;10504742;28;20044;-86
2023/08/23 13:56:19;;;;;;;6.82;5.35;;;;;;;;;;10508297;28;20111;-89
2023/08/23 14:01:20;;;;;;;7.38;5.25;;;;;;;;;;10502056;28;20436;-86
2023/08/23 14:06:21;;;;;;;6.15;5.20;;;;;;;;;;10520798;28;20032;-84
2023/08/23 14:11:22;;;;;;;7.85;5.65;;;;;;;;;;10504487;28;20043;-87
2023/08/23 14:16:23;;;;;;;8.80;5.88;;;;;;;;;;10516666;28;20078;-88
2023/08/23 14:21:24;;;;;;;7.80;5.18;;;;;;;;;;10523173;28;20034;-88
2023/08/23 14:26:25;;;;;;;7.15;5.65;;;;;;;;;;10495679;28;20028;-86
2023/08/23 14:31:26;;;;;;;7.97;5.97;;;;;;;;;;10324773;22;20153;-89
2023/08/23 14:36:27;;;;;;;6.80;5.65;;;;;;;;;;10274917;28;20150;-91
2023/08/23 14:41:28;;;;;;;5.93;5.32;;;;;;;;;;10278657;28;20045;-92
2023/08/23 14:46:33;;;;;;;8.13;5.47;;;;;;;;;;10277829;28;20035;-88
2023/08/23 14:51:34;;;;;;;6.20;5.13;;;;;;;;;;10276326;28;20039;-90
2023/08/23 14:56:35;;;;;;;6.35;5.53;;;;;;;;;;10255390;28;20033;-90
2023/08/23 15:01:36;;;;;;;8.48;5.60;;;;;;;;;;10284515;28;20504;-89
2023/08/23 15:06:37;;;;;;;6.00;5.40;;;;;;;;;;10255586;28;20024;-90
2023/08/23 15:11:38;;;;;;;6.50;5.80;;;;;;;;;;10253033;28;20141;-88
2023/08/23 15:16:39;;;;;;;6.93;4.75;;;;;;;;;;10255653;28;20078;-91
2023/08/23 15:21:40;;;;;;;6.95;4.88;;;;;;;;;;10244888;28;20039;-90
2023/08/23 15:26:41;;;;;;;6.75;5.22;;;;;;;;;;10253897;28;20134;-90
2023/08/23 15:31:42;;;;;;;6.43;5.30;;;;;;;;;;10237957;28;20063;-90
2023/08/23 15:36:43;;;;;;;6.18;4.90;;;;;;;;;;10260206;28;20161;-90
2023/08/23 15:41:45;;;;;;;5.07;4.20;;;;;;;;;;10239515;28;20509;-89
2023/08/23 15:46:46;;;;;;;5.40;4.15;;;;;;;;;;10238267;28;21900;-88
2023/08/23 15:51:47;;;;;;;5.43;3.78;;;;;;;;;;10244897;28;20038;-90
2023/08/23 15:56:48;;;;;;;6.03;3.97;;;;;;;;;;10240164;28;20031;-91
2023/08/23 16:01:49;;;;;;;5.97;3.95;;;;;;;;;;10233774;28;20043;-88
2023/08/23 16:06:50;;;;;;;4.75;3.85;;;;;;;;;;10235842;28;20474;-89
2023/08/23 16:11:52;;;;;;;4.88;3.55;;;;;;;;;;10224964;28;20344;-89
2023/08/23 16:16:53;;;;;;;4.03;3.25;;;;;;;;;;10241348;28;20030;-89
2023/08/23 16:21:54;;;;;;;5.18;3.70;;;;;;;;;;10264737;28;20818;-89
2023/08/23 16:26:55;;;;;;;4.15;3.65;;;;;;;;;;10252251;28;20605;-86
2023/08/23 16:31:56;;;;;;;6.78;3.80;;;;;;;;;;10244904;28;20154;-89
2023/08/23 16:36:58;;;;;;;6.22;3.65;;;;;;;;;;10261249;28;20039;-88
2023/08/23 16:41:59;;;;;;;3.28;2.97;;;;;;;;;;10235424;28;20035;-88
2023/08/23 16:47:00;;;;;;;7.22;5.72;;;;;;;;;;10233216;28;20039;-87
2023/08/23 16:52:01;;;;;;;76.95;48.00;;;;;;;;;;10247256;28;20045;-86
2023/08/23 16:57:02;;;;;;;59.33;39.25;;;;;;;;;;10242893;28;20032;-86
2023/08/23 17:02:03;;;;;;;29.35;17.85;;;;;;;;;;10241788;28;20063;-84
2023/08/23 17:07:04;;;;;;;65.70;38.22;;;;;;;;;;10234683;28;20050;-84
2023/08/23 17:12:05;;;;;;;38.85;24.02;;;;;;;;;;10252187;28;20536;-85
2023/08/23 17:17:10;;;;;;;19.65;12.00;;;;;;;;;;10244474;28;20047;-83
2023/08/23 17:22:11;;;;;;;84.32;42.10;;;;;;;;;;10242561;28;20023;-86
2023/08/23 17:27:12;;;;;;;28.92;15.75;;;;;;;;;;10247744;28;20039;-85
2023/08/23 17:32:13;;;;;;;10.73;6.30;;;;;;;;;;10451109;28;20124;-88
2023/08/23 17:37:14;;;;;;;4.50;3.60;;;;;;;;;;10456233;28;20396;-85
2023/08/23 17:42:15;;;;;;;10.52;4.57;;;;;;;;;;10433259;28;20025;-84
2023/08/23 17:47:16;;;;;;;10.63;5.38;;;;;;;;;;10461312;28;20396;-83
2023/08/23 17:52:17;;;;;;;6.60;4.20;;;;;;;;;;10462617;28;20151;-84
2023/08/23 17:57:18;;;;;;;4.82;3.22;;;;;;;;;;10455985;28;20021;-85
2023/08/23 18:02:20;;;;;;;7.60;4.20;;;;;;;;;;10454038;28;20032;-85
2023/08/23 18:07:21;;;;;;;9.20;4.75;;;;;;;;;;10454362;28;20076;-83
2023/08/23 18:12:22;;;;;;;7.05;4.07;;;;;;;;;;10456409;28;20477;-84
2023/08/23 18:17:23;;;;;;;4.90;3.25;;;;;;;;;;10449002;28;20032;-84
2023/08/23 18:22:24;;;;;;;8.23;4.00;;;;;;;;;;10426065;28;20024;-83
2023/08/23 18:27:25;;;;;;;11.68;4.00;;;;;;;;;;10434200;28;20648;-84
2023/08/23 18:32:26;;;;;;;6.47;3.40;;;;;;;;;;10448069;28;20041;-86
2023/08/23 18:37:27;;;;;;;7.10;4.18;;;;;;;;;;10445786;28;20814;-84
2023/08/23 18:42:28;;;;;;;6.88;3.75;;;;;;;;;;10448583;28;20066;-84
2023/08/23 18:47:29;;;;;;;4.20;2.95;;;;;;;;;;10439530;28;20808;-84
2023/08/23 18:52:31;;;;;;;6.00;3.30;;;;;;;;;;10440347;28;20014;-84
2023/08/23 18:57:32;;;;;;;4.32;3.00;;;;;;;;;;10442717;28;20710;-83
2023/08/23 19:02:33;;;;;;;4.32;2.60;;;;;;;;;;10422321;28;20119;-86
2023/08/23 19:07:34;;;;;;;6.95;3.08;;;;;;;;;;10429300;28;20186;-86
2023/08/23 19:12:35;;;;;;;4.60;2.30;;;;;;;;;;10447412;28;20032;-85
2023/08/23 19:17:36;;;;;;;5.22;2.47;;;;;;;;;;10429643;28;20029;-87
2023/08/23 19:22:38;;;;;;;6.60;3.30;;;;;;;;;;10437855;28;20041;-85
2023/08/23 19:27:39;;;;;;;5.53;3.03;;;;;;;;;;10441719;28;20714;-85
2023/08/23 19:32:39;;;;;;;4.45;2.67;;;;;;;;;;10427719;28;20032;-84
2023/08/23 19:37:40;;;;;;;5.32;2.53;;;;;;;;;;10446705;28;20033;-85
2023/08/23 19:42:42;;;;;;;6.47;2.88;;;;;;;;;;10428346;28;20028;-84
2023/08/23 19:47:43;;;;;;;5.13;2.83;;;;;;;;;;10427729;28;20044;-84
2023/08/23 19:52:46;;;;;;;8.63;3.35;;;;;;;;;;10445286;28;20040;-83
2023/08/23 19:57:47;;;;;;;5.18;3.20;;;;;;;;;;10448102;28;20029;-84
2023/08/23 20:02:48;;;;;;;5.25;3.33;;;;;;;;;;10426752;28;20129;-83
2023/08/23 20:07:50;;;;;;;5.28;3.20;;;;;;;;;;10455674;28;20106;-84
2023/08/23 20:12:51;;;;;;;7.28;3.72;;;;;;;;;;10455831;28;20033;-86
2023/08/23 20:17:52;;;;;;;5.30;3.25;;;;;;;;;;10444946;28;20116;-85
2023/08/23 20:22:53;;;;;;;7.03;3.10;;;;;;;;;;10446799;28;20107;-84
2023/08/23 20:27:54;;;;;;;3.88;2.80;;;;;;;;;;10486797;22;20143;-85
2023/08/23 20:32:55;;;;;;;8.45;3.05;;;;;;;;;;10512904;28;20571;-88
2023/08/23 20:37:56;;;;;;;3.50;2.35;;;;;;;;;;10536989;28;20028;-85
2023/08/23 20:42:58;;;;;;;3.53;2.67;;;;;;;;;;10526543;28;20540;-85
2023/08/23 20:47:59;;;;;;;3.60;2.75;;;;;;;;;;10507813;28;20427;-85
2023/08/23 20:53:00;;;;;;;4.75;2.70;;;;;;;;;;10513211;28;20024;-85
2023/08/23 20:58:01;;;;;;;6.13;2.67;;;;;;;;;;10510074;28;20496;-87
2023/08/23 21:03:02;;;;;;;6.03;3.08;;;;;;;;;;10537264;28;20024;-91
2023/08/23 21:08:34;;;;;;;6.07;3.30;;;;;;;;;;10506439;28;20491;-83
2023/08/23 21:13:35;;;;;;;7.55;3.30;;;;;;;;;;10492321;28;20061;-87
2023/08/23 21:18:36;;;;;;;5.90;3.63;;;;;;;;;;10502389;28;20032;-85
2023/08/23 21:23:37;;;;;;;6.85;3.58;;;;;;;;;;10496547;28;20036;-88
2023/08/23 21:28:39;;;;;;;6.78;3.67;;;;;;;;;;10359720;28;20551;-84
2023/08/23 21:33:41;;;;;;;8.48;4.28;;;;;;;;;;10313005;28;20409;-85
2023/08/23 21:38:42;;;;;;;7.07;4.70;;;;;;;;;;10310960;28;20046;-85
2023/08/23 21:43:43;;;;;;;8.18;4.20;;;;;;;;;;10307081;28;20371;-87
2023/08/23 21:48:44;;;;;;;10.45;4.28;;;;;;;;;;10300180;28;20045;-88
2023/08/23 21:53:45;;;;;;;7.07;4.63;;;;;;;;;;10303957;28;20044;-86
2023/08/23 21:58:46;;;;;;;5.55;4.07;;;;;;;;;;10300826;28;20031;-83
2023/08/23 22:03:47;;;;;;;8.82;4.47;;;;;;;;;;10295648;28;20034;-85
2023/08/23 22:08:49;;;;;;;8.45;4.53;;;;;;;;;;10304763;28;20443;-85
2023/08/23 22:13:50;;;;;;;5.65;4.50;;;;;;;;;;10310780;28;20121;-86
2023/08/23 22:18:51;;;;;;;8.20;4.10;;;;;;;;;;10306645;28;20037;-85
2023/08/23 22:23:52;;;;;;;6.70;4.80;;;;;;;;;;10317812;28;20038;-85
2023/08/23 22:28:53;;;;;;;8.50;4.97;;;;;;;;;;10473030;28;20499;-85
2023/08/23 22:33:54;;;;;;;8.65;4.38;;;;;;;;;;10493887;28;20028;-85
2023/08/23 22:38:55;;;;;;;10.60;4.70;;;;;;;;;;10518295;28;20040;-87
2023/08/23 22:43:56;;;;;;;7.28;4.63;;;;;;;;;;10529061;28;20051;-85
2023/08/23 22:48:57;;;;;;;8.00;4.35;;;;;;;;;;10499562;28;20707;-89
2023/08/23 22:53:58;;;;;;;10.70;4.55;;;;;;;;;;10501910;28;20706;-83
2023/08/23 22:58:59;;;;;;;6.50;4.28;;;;;;;;;;10513985;28;20038;-87
2023/08/23 23:04:00;;;;;;;7.18;4.50;;;;;;;;;;10505235;28;20432;-88
2023/08/23 23:09:01;;;;;;;7.07;4.50;;;;;;;;;;10491462;28;20040;-90
2023/08/23 23:14:02;;;;;;;8.40;4.80;;;;;;;;;;10511222;28;20035;-85
2023/08/23 23:19:03;;;;;;;7.85;4.85;;;;;;;;;;10510490;28;20111;-85
2023/08/23 23:24:04;;;;;;;7.72;4.63;;;;;;;;;;10491877;28;20037;-86
2023/08/23 23:29:05;;;;;;;7.13;4.68;;;;;;;;;;10519732;28;20161;-86
2023/08/23 23:34:06;;;;;;;7.20;4.32;;;;;;;;;;10494538;28;20411;-87
2023/08/23 23:39:07;;;;;;;9.45;4.93;;;;;;;;;;10525609;28;20032;-87
2023/08/23 23:44:08;;;;;;;7.15;4.40;;;;;;;;;;10487135;28;20448;-84
2023/08/23 23:49:09;;;;;;;7.28;4.60;;;;;;;;;;10507823;28;20064;-84
2023/08/23 23:54:10;;;;;;;9.65;4.60;;;;;;;;;;10529752;28;20035;-84
2023/08/23 23:59:11;;;;;;;7.78;4.05;;;;;;;;;;10522837;28;20043;-84
